Sunizona, Arizona
Current Conditions -  °F | °C
As of 4:56 AM on Friday 28 Nov 2014 (Local Time) from KDUG Reporting Station
Clear Clear  
Wind Chill: 27°   Ceiling: Unl
Heat Index: 27°   Visibility: 10mi
Dew Point: 16°   Wind: 0mph
Humidity: 63%   Direction: NA
Pressure: 30.2"   Gusts: NA
Location:  31.9924°N, 109.696°W
Report Text: KDUG 281156Z AUTO 00000KT 10SM CLR M03/M09 A3020 RMK AO2 SLP204 T10281089 10056 21028 56008
Loading
Personal Weather Stations






























Interactive Weather Map New forecast layout! Learn more

10-Day Weather Forecast

Advertisements
Track Severe Weather on mobile